IAG weather

Niagara Falls International Airport
Niagara Falls, New York, United States

Public forecast

Using degrees Fahrenheit for public forecast. Weather courtesy of forecast.io.

METAR (pilot weather report)

Retrieved 2019/05/19 15:53 UTC (24 minutes ago):

KIAG 191553Z 23014KT 10SM BKN060 26/17 A2982 RMK AO2 SLP097 T02610167 $

TAF (pilot weather forecast)

Retrieved 2019/05/19 12:22 UTC (4 hours ago):

TAF KIAG 191120Z 1912/2012 21007KT P6SM BKN150 TEMPO 1916/1918 5SM -SHRA BR OVC040 FM191800 21011G20KT P6SM SCT250 FM200000 24011G24KT P6SM VCSH BKN090 WS015/25040KT FM201000 20008KT P6SM BKN045 WS015/25040KT